FNC weather

Madeira Airport
Funchal, Autonomous Region of Madeira, Portugal

Public forecast

Using degrees Celsius for public forecast. Weather courtesy of forecast.io.

METAR (pilot weather report)

Retrieved 2019/05/22 10:30 UTC (28 minutes ago):

LPMA 221030Z 04015KT 9999 SCT016 21/13 Q1021

TAF (pilot weather forecast)

Retrieved 2019/05/22 06:18 UTC (5 hours ago):

TAF LPMA 220500Z 2206/2306 02015KT 9999 SCT015